Welcome to Des Moines Iowa Weather. I am an independent private personal weather station on the Northwest Side of Des Moines, Iowa. Just East of Windsor Heights and just West of Glendale . This site is also mobile friendly.

There are no active watches, warnings or advisories


Visit our other weather sites:

Historical Data

Weather Station Setup



Weather Underground History page Text

Daily Summary for March 7, 2018 Units:  Both    English   Metric
« Previous Day
Next Day »
Daily Weekly Monthly Yearly Custom
  High: Low: Average:
Temperature: 31.7 °F /  -0.2 °C 20.0 °F /  -6.7 °C 26.3 °F /  -3.2 °C
Dew Point: 26.0 °F /  -3.3 °C 16.0 °F /  -8.9 °C 21 °F /  -6.1 °C
Humidity: 88 % 63 % 81 %
Wind Speed: 12.0 mph /  19.3 km/h - 4.1 mph /  6.6 km/h
Wind Gust: 22.0 mph /  35.4 km/h - -
Wind:- - NW
Pressure: 30.25 in /  1024.3 hPa 30.11 in /  1019.5 hPa -
Precipitation: 0.00 in /  0 mm    
Historical Graphs
 
 
Tabular Data for March 7, 2018
Time Temperature Dew Point Pressure Wind Wind Speed Wind Gust Humidity Rainfall Rate (Hourly)
00:00 29.7 °F /  -1.3 °C 25.8 °F /  -3.4 °C 30.11 in /  1019.5 hPa NNW 7.0 mph /  11.3 km/h 17.0 mph /  27.4 km/h 85 % 0.00 in /  0 mm
00:03 29.6 °F /  -1.3 °C 26.0 °F /  -3.3 °C 30.15 in /  1020.9 hPa NW 6.0 mph /  9.7 km/h 13.0 mph /  20.9 km/h 85 % 0.00 in /  0 mm
00:05 29.7 °F /  -1.3 °C 25.8 °F /  -3.4 °C 30.11 in /  1019.5 hPa NNW 7.0 mph /  11.3 km/h 17.0 mph /  27.4 km/h 85 % 0.00 in /  0 mm
00:10 29.7 °F /  -1.3 °C 25.8 °F /  -3.4 °C 30.11 in /  1019.5 hPa NNW 7.0 mph /  11.3 km/h 17.0 mph /  27.4 km/h 85 % 0.00 in /  0 mm
00:15 29.6 °F /  -1.3 °C 25.7 °F /  -3.5 °C 30.11 in /  1019.5 hPa NNW 6.0 mph /  9.7 km/h 15.0 mph /  24.1 km/h 85 % 0.00 in /  0 mm
00:18 29.4 °F /  -1.4 °C 25.0 °F /  -3.9 °C 30.15 in /  1020.9 hPa NNW 5.0 mph /  8 km/h 13.0 mph /  20.9 km/h 84 % 0.00 in /  0 mm
00:20 29.6 °F /  -1.3 °C 25.7 °F /  -3.5 °C 30.11 in /  1019.5 hPa NNW 6.0 mph /  9.7 km/h 15.0 mph /  24.1 km/h 85 % 0.00 in /  0 mm
00:25 29.6 °F /  -1.3 °C 25.7 °F /  -3.5 °C 30.11 in /  1019.5 hPa NNW 6.0 mph /  9.7 km/h 15.0 mph /  24.1 km/h 85 % 0.00 in /  0 mm
00:30 29.4 °F /  -1.4 °C 25.2 °F /  -3.8 °C 30.12 in /  1019.9 hPa NNW 4.0 mph /  6.4 km/h 13.0 mph /  20.9 km/h 84 % 0.00 in /  0 mm
00:33 29.3 °F /  -1.5 °C 25.0 °F /  -3.9 °C 30.15 in /  1020.9 hPa NW 2.0 mph /  3.2 km/h 10.0 mph /  16.1 km/h 84 % 0.00 in /  0 mm
00:35 29.4 °F /  -1.4 °C 25.2 °F /  -3.8 °C 30.12 in /  1019.9 hPa NNW 4.0 mph /  6.4 km/h 13.0 mph /  20.9 km/h 84 % 0.00 in /  0 mm
00:40 29.4 °F /  -1.4 °C 25.2 °F /  -3.8 °C 30.12 in /  1019.9 hPa NNW 4.0 mph /  6.4 km/h 13.0 mph /  20.9 km/h 84 % 0.00 in /  0 mm
00:45 29.3 °F /  -1.5 °C 25.1 °F /  -3.8 °C 30.12 in /  1019.9 hPa NW 4.0 mph /  6.4 km/h 12.0 mph /  19.3 km/h 84 % 0.00 in /  0 mm
00:48 29.2 °F /  -1.6 °C 25.0 °F /  -3.9 °C 30.15 in /  1020.9 hPa NW 1.0 mph /  1.6 km/h 12.0 mph /  19.3 km/h 83 % 0.00 in /  0 mm
00:50 29.3 °F /  -1.5 °C 25.1 °F /  -3.8 °C 30.12 in /  1019.9 hPa NW 4.0 mph /  6.4 km/h 12.0 mph /  19.3 km/h 84 % 0.00 in /  0 mm
00:55 29.3 °F /  -1.5 °C 25.1 °F /  -3.8 °C 30.12 in /  1019.9 hPa NW 4.0 mph /  6.4 km/h 12.0 mph /  19.3 km/h 84 % 0.00 in /  0 mm
01:00 29.2 °F /  -1.6 °C 24.7 °F /  -4.1 °C 30.13 in /  1020.2 hPa NNW 4.0 mph /  6.4 km/h 14.0 mph /  22.5 km/h 83 % 0.00 in /  0 mm
01:03 29.0 °F /  -1.7 °C 24.0 °F /  -4.4 °C 30.16 in /  1021.2 hPa NW 5.0 mph /  8 km/h 9.0 mph /  14.5 km/h 81 % 0.00 in /  0 mm
01:05 29.2 °F /  -1.6 °C 24.7 °F /  -4.1 °C 30.13 in /  1020.2 hPa NNW 4.0 mph /  6.4 km/h 14.0 mph /  22.5 km/h 83 % 0.00 in /  0 mm
01:10 29.2 °F /  -1.6 °C 24.7 °F /  -4.1 °C 30.13 in /  1020.2 hPa NNW 4.0 mph /  6.4 km/h 14.0 mph /  22.5 km/h 83 % 0.00 in /  0 mm
01:15 29.0 °F /  -1.7 °C 23.9 °F /  -4.5 °C 30.13 in /  1020.2 hPa NW 4.0 mph /  6.4 km/h 12.0 mph /  19.3 km/h 81 % 0.00 in /  0 mm
01:18 28.9 °F /  -1.7 °C 23.0 °F /  -5 °C 30.16 in /  1021.2 hPa NNW 5.0 mph /  8 km/h 10.0 mph /  16.1 km/h 77 % 0.00 in /  0 mm
01:20 29.0 °F /  -1.7 °C 23.9 °F /  -4.5 °C 30.13 in /  1020.2 hPa NW 4.0 mph /  6.4 km/h 12.0 mph /  19.3 km/h 81 % 0.00 in /  0 mm
01:25 29.0 °F /  -1.7 °C 23.9 °F /  -4.5 °C 30.13 in /  1020.2 hPa NW 4.0 mph /  6.4 km/h 12.0 mph /  19.3 km/h 81 % 0.00 in /  0 mm
01:30 28.9 °F /  -1.7 °C 22.6 °F /  -5.2 °C 30.13 in /  1020.2 hPa NNW 5.0 mph /  8 km/h 14.0 mph /  22.5 km/h 77 % 0.00 in /  0 mm
01:33 28.8 °F /  -1.8 °C 22.0 °F /  -5.6 °C 30.16 in /  1021.2 hPa NW 2.0 mph /  3.2 km/h 6.0 mph /  9.7 km/h 77 % 0.00 in /  0 mm
01:35 28.9 °F /  -1.7 °C 22.6 °F /  -5.2 °C 30.13 in /  1020.2 hPa NNW 5.0 mph /  8 km/h 14.0 mph /  22.5 km/h 77 % 0.00 in /  0 mm
01:40 28.9 °F /  -1.7 °C 22.6 °F /  -5.2 °C 30.13 in /  1020.2 hPa NNW 5.0 mph /  8 km/h 14.0 mph /  22.5 km/h 77 % 0.00 in /  0 mm
01:45 28.8 °F /  -1.8 °C 22.5 °F /  -5.3 °C 30.13 in /  1020.2 hPa NNW 4.0 mph /  6.4 km/h 10.0 mph /  16.1 km/h 77 % 0.00 in /  0 mm
01:48 28.4 °F /  -2 °C 22.0 °F /  -5.6 °C 30.16 in /  1021.2 hPa NW 5.0 mph /  8 km/h 10.0 mph /  16.1 km/h 77 % 0.00 in /  0 mm
01:55 28.8 °F /  -1.8 °C 22.5 °F /  -5.3 °C 30.13 in /  1020.2 hPa NNW 4.0 mph /  6.4 km/h 10.0 mph /  16.1 km/h 77 % 0.00 in /  0 mm
02:00 28.5 °F /  -1.9 °C 22.2 °F /  -5.4 °C 30.13 in /  1020.2 hPa NNW 4.0 mph /  6.4 km/h 10.0 mph /  16.1 km/h 77 % 0.00 in /  0 mm
02:03 28.0 °F /  -2.2 °C 22.0 °F /  -5.6 °C 30.16 in /  1021.2 hPa NNW 4.0 mph /  6.4 km/h 10.0 mph /  16.1 km/h 77 % 0.00 in /  0 mm
02:05 28.5 °F /  -1.9 °C 22.2 °F /  -5.4 °C 30.13 in /  1020.2 hPa NNW 4.0 mph /  6.4 km/h 10.0 mph /  16.1 km/h 77 % 0.00 in /  0 mm
02:10 28.5 °F /  -1.9 °C 22.2 °F /  -5.4 °C 30.13 in /  1020.2 hPa NNW 4.0 mph /  6.4 km/h 10.0 mph /  16.1 km/h 77 % 0.00 in /  0 mm
02:15 28.0 °F /  -2.2 °C 21.7 °F /  -5.7 °C 30.13 in /  1020.2 hPa NNW 5.0 mph /  8 km/h 13.0 mph /  20.9 km/h 77 % 0.00 in /  0 mm
02:20 28.0 °F /  -2.2 °C 21.7 °F /  -5.7 °C 30.13 in /  1020.2 hPa NNW 5.0 mph /  8 km/h 13.0 mph /  20.9 km/h 77 % 0.00 in /  0 mm
02:21 27.5 °F /  -2.5 °C 22.0 °F /  -5.6 °C 30.17 in /  1021.6 hPa NW 3.0 mph /  4.8 km/h 11.0 mph /  17.7 km/h 79 % 0.00 in /  0 mm
02:25 28.0 °F /  -2.2 °C 21.7 °F /  -5.7 °C 30.13 in /  1020.2 hPa NNW 5.0 mph /  8 km/h 13.0 mph /  20.9 km/h 77 % 0.00 in /  0 mm
02:30 27.5 °F /  -2.5 °C 21.9 °F /  -5.6 °C 30.13 in /  1020.2 hPa NNW 4.0 mph /  6.4 km/h 12.0 mph /  19.3 km/h 79 % 0.00 in /  0 mm
02:34 27.3 °F /  -2.6 °C 22.0 °F /  -5.6 °C 30.17 in /  1021.6 hPa WNW 1.0 mph /  1.6 km/h 10.0 mph /  16.1 km/h 80 % 0.00 in /  0 mm
02:35 27.5 °F /  -2.5 °C 21.9 °F /  -5.6 °C 30.13 in /  1020.2 hPa NNW 4.0 mph /  6.4 km/h 12.0 mph /  19.3 km/h 79 % 0.00 in /  0 mm
02:40 27.5 °F /  -2.5 °C 21.9 °F /  -5.6 °C 30.13 in /  1020.2 hPa NNW 4.0 mph /  6.4 km/h 12.0 mph /  19.3 km/h 79 % 0.00 in /  0 mm
02:45 27.3 °F /  -2.6 °C 22.0 °F /  -5.6 °C 30.14 in /  1020.5 hPa NW 4.0 mph /  6.4 km/h 13.0 mph /  20.9 km/h 80 % 0.00 in /  0 mm
02:50 27.0 °F /  -2.8 °C 22.0 °F /  -5.6 °C 30.17 in /  1021.6 hPa NW 2.0 mph /  3.2 km/h 10.0 mph /  16.1 km/h 81 % 0.00 in /  0 mm
02:55 27.3 °F /  -2.6 °C 22.0 °F /  -5.6 °C 30.14 in /  1020.5 hPa NW 4.0 mph /  6.4 km/h 13.0 mph /  20.9 km/h 80 % 0.00 in /  0 mm
02:59 26.9 °F /  -2.8 °C 22.0 °F /  -5.6 °C 30.14 in /  1020.5 hPa NNW 2.0 mph /  3.2 km/h 11.0 mph /  17.7 km/h 81 % 0.00 in /  0 mm
03:00 27.0 °F /  -2.8 °C 22.0 °F /  -5.6 °C 30.14 in /  1020.5 hPa NNW 5.0 mph /  8 km/h 11.0 mph /  17.7 km/h 81 % 0.00 in /  0 mm
03:05 26.4 °F /  -3.1 °C 21.0 °F /  -6.1 °C 30.18 in /  1021.9 hPa WNW 4.0 mph /  6.4 km/h 10.0 mph /  16.1 km/h 81 % 0.00 in /  0 mm
03:10 27.0 °F /  -2.8 °C 22.0 °F /  -5.6 °C 30.14 in /  1020.5 hPa NNW 5.0 mph /  8 km/h 11.0 mph /  17.7 km/h 81 % 0.00 in /  0 mm
03:15 26.4 °F /  -3.1 °C 21.4 °F /  -5.9 °C 30.14 in /  1020.5 hPa NW 5.0 mph /  8 km/h 12.0 mph /  19.3 km/h 81 % 0.00 in /  0 mm
03:19 25.9 °F /  -3.4 °C 21.0 °F /  -6.1 °C 30.17 in /  1021.6 hPa WNW 7.0 mph /  11.3 km/h 12.0 mph /  19.3 km/h 81 % 0.00 in /  0 mm
03:20 26.4 °F /  -3.1 °C 21.4 °F /  -5.9 °C 30.14 in /  1020.5 hPa NW 5.0 mph /  8 km/h 12.0 mph /  19.3 km/h 81 % 0.00 in /  0 mm
03:25 26.4 °F /  -3.1 °C 21.4 °F /  -5.9 °C 30.14 in /  1020.5 hPa NW 5.0 mph /  8 km/h 12.0 mph /  19.3 km/h 81 % 0.00 in /  0 mm
03:30 25.9 °F /  -3.4 °C 20.9 °F /  -6.2 °C 30.14 in /  1020.5 hPa NW 5.0 mph /  8 km/h 14.0 mph /  22.5 km/h 81 % 0.00 in /  0 mm
03:35 25.9 °F /  -3.4 °C 20.9 °F /  -6.2 °C 30.14 in /  1020.5 hPa NW 5.0 mph /  8 km/h 14.0 mph /  22.5 km/h 81 % 0.00 in /  0 mm
03:39 25.4 °F /  -3.7 °C 21.0 °F /  -6.1 °C 30.16 in /  1021.2 hPa WNW 3.0 mph /  4.8 km/h 11.0 mph /  17.7 km/h 82 % 0.00 in /  0 mm
03:40 25.9 °F /  -3.4 °C 20.9 °F /  -6.2 °C 30.14 in /  1020.5 hPa NW 5.0 mph /  8 km/h 14.0 mph /  22.5 km/h 81 % 0.00 in /  0 mm
03:45 25.4 °F /  -3.7 °C 20.7 °F /  -6.3 °C 30.13 in /  1020.2 hPa NW 4.0 mph /  6.4 km/h 12.0 mph /  19.3 km/h 82 % 0.00 in /  0 mm
03:49 25.0 °F /  -3.9 °C 20.0 °F /  -6.7 °C 30.15 in /  1020.9 hPa WNW 2.0 mph /  3.2 km/h 6.0 mph /  9.7 km/h 82 % 0.00 in /  0 mm
03:50 25.4 °F /  -3.7 °C 20.7 °F /  -6.3 °C 30.13 in /  1020.2 hPa NW 4.0 mph /  6.4 km/h 12.0 mph /  19.3 km/h 82 % 0.00 in /  0 mm
03:55 25.4 °F /  -3.7 °C 20.7 °F /  -6.3 °C 30.13 in /  1020.2 hPa NW 4.0 mph /  6.4 km/h 12.0 mph /  19.3 km/h 82 % 0.00 in /  0 mm
04:00 25.1 °F /  -3.8 °C 20.4 °F /  -6.4 °C 30.12 in /  1019.9 hPa NW 2.0 mph /  3.2 km/h 9.0 mph /  14.5 km/h 82 % 0.00 in /  0 mm
04:04 24.5 °F /  -4.2 °C 20.0 °F /  -6.7 °C 30.17 in /  1021.6 hPa NW 2.0 mph /  3.2 km/h 5.0 mph /  8 km/h 82 % 0.00 in /  0 mm
04:05 25.1 °F /  -3.8 °C 20.4 °F /  -6.4 °C 30.12 in /  1019.9 hPa NW 2.0 mph /  3.2 km/h 9.0 mph /  14.5 km/h 82 % 0.00 in /  0 mm
04:10 25.1 °F /  -3.8 °C 20.4 °F /  -6.4 °C 30.12 in /  1019.9 hPa NW 2.0 mph /  3.2 km/h 9.0 mph /  14.5 km/h 82 % 0.00 in /  0 mm
04:15 24.5 °F /  -4.2 °C 19.8 °F /  -6.8 °C 30.13 in /  1020.2 hPa NW 1.0 mph /  1.6 km/h 8.0 mph /  12.9 km/h 82 % 0.00 in /  0 mm
04:19 24.1 °F /  -4.4 °C 20.0 °F /  -6.7 °C 30.17 in /  1021.6 hPa WNW 2.0 mph /  3.2 km/h 9.0 mph /  14.5 km/h 83 % 0.00 in /  0 mm
04:20 24.5 °F /  -4.2 °C 19.8 °F /  -6.8 °C 30.13 in /  1020.2 hPa NW 1.0 mph /  1.6 km/h 8.0 mph /  12.9 km/h 82 % 0.00 in /  0 mm
04:25 24.5 °F /  -4.2 °C 19.8 °F /  -6.8 °C 30.13 in /  1020.2 hPa NW 1.0 mph /  1.6 km/h 8.0 mph /  12.9 km/h 82 % 0.00 in /  0 mm
04:30 24.1 °F /  -4.4 °C 19.7 °F /  -6.8 °C 30.14 in /  1020.5 hPa NW 2.0 mph /  3.2 km/h 12.0 mph /  19.3 km/h 83 % 0.00 in /  0 mm
04:34 23.6 °F /  -4.7 °C 20.0 °F /  -6.7 °C 30.17 in /  1021.6 hPa NW 3.0 mph /  4.8 km/h 8.0 mph /  12.9 km/h 84 % 0.00 in /  0 mm
04:35 24.1 °F /  -4.4 °C 19.7 °F /  -6.8 °C 30.14 in /  1020.5 hPa NW 2.0 mph /  3.2 km/h 12.0 mph /  19.3 km/h 83 % 0.00 in /  0 mm
04:40 24.1 °F /  -4.4 °C 19.7 °F /  -6.8 °C 30.14 in /  1020.5 hPa NW 2.0 mph /  3.2 km/h 12.0 mph /  19.3 km/h 83 % 0.00 in /  0 mm
04:45 23.6 °F /  -4.7 °C 19.5 °F /  -6.9 °C 30.14 in /  1020.5 hPa NW 3.0 mph /  4.8 km/h 9.0 mph /  14.5 km/h 84 % 0.00 in /  0 mm
04:49 23.1 °F /  -4.9 °C 19.0 °F /  -7.2 °C 30.17 in /  1021.6 hPa NW 1.0 mph /  1.6 km/h 10.0 mph /  16.1 km/h 84 % 0.00 in /  0 mm
04:50 23.6 °F /  -4.7 °C 19.5 °F /  -6.9 °C 30.14 in /  1020.5 hPa NW 3.0 mph /  4.8 km/h 9.0 mph /  14.5 km/h 84 % 0.00 in /  0 mm
04:55 23.6 °F /  -4.7 °C 19.5 °F /  -6.9 °C 30.14 in /  1020.5 hPa NW 3.0 mph /  4.8 km/h 9.0 mph /  14.5 km/h 84 % 0.00 in /  0 mm
05:00 23.1 °F /  -4.9 °C 19.0 °F /  -7.2 °C 30.14 in /  1020.5 hPa NNW 4.0 mph /  6.4 km/h 12.0 mph /  19.3 km/h 84 % 0.00 in /  0 mm
05:04 22.5 °F /  -5.3 °C 18.0 °F /  -7.8 °C 30.17 in /  1021.6 hPa West 3.0 mph /  4.8 km/h 8.0 mph /  12.9 km/h 84 % 0.00 in /  0 mm
05:05 23.1 °F /  -4.9 °C 19.0 °F /  -7.2 °C 30.14 in /  1020.5 hPa NNW 4.0 mph /  6.4 km/h 12.0 mph /  19.3 km/h 84 % 0.00 in /  0 mm
05:10 23.1 °F /  -4.9 °C 19.0 °F /  -7.2 °C 30.14 in /  1020.5 hPa NNW 4.0 mph /  6.4 km/h 12.0 mph /  19.3 km/h 84 % 0.00 in /  0 mm
05:15 22.5 °F /  -5.3 °C 18.4 °F /  -7.6 °C 30.14 in /  1020.5 hPa NNW 3.0 mph /  4.8 km/h 9.0 mph /  14.5 km/h 84 % 0.00 in /  0 mm
05:19 21.9 °F /  -5.6 °C 18.0 °F /  -7.8 °C 30.17 in /  1021.6 hPa NNW 5.0 mph /  8 km/h 6.0 mph /  9.7 km/h 84 % 0.00 in /  0 mm
05:20 22.5 °F /  -5.3 °C 18.4 °F /  -7.6 °C 30.14 in /  1020.5 hPa NNW 3.0 mph /  4.8 km/h 9.0 mph /  14.5 km/h 84 % 0.00 in /  0 mm
05:25 22.5 °F /  -5.3 °C 18.4 °F /  -7.6 °C 30.14 in /  1020.5 hPa NNW 3.0 mph /  4.8 km/h 9.0 mph /  14.5 km/h 84 % 0.00 in /  0 mm
05:30 22.0 °F /  -5.6 °C 17.9 °F /  -7.8 °C 30.14 in /  1020.5 hPa NW 3.0 mph /  4.8 km/h 10.0 mph /  16.1 km/h 84 % 0.00 in /  0 mm
05:34 21.5 °F /  -5.8 °C 17.0 °F /  -8.3 °C 30.17 in /  1021.6 hPa NW 1.0 mph /  1.6 km/h 2.0 mph /  3.2 km/h 84 % 0.00 in /  0 mm
05:35 22.0 °F /  -5.6 °C 17.9 °F /  -7.8 °C 30.14 in /  1020.5 hPa NW 3.0 mph /  4.8 km/h 10.0 mph /  16.1 km/h 84 % 0.00 in /  0 mm
05:40 22.0 °F /  -5.6 °C 17.9 °F /  -7.8 °C 30.14 in /  1020.5 hPa NW 3.0 mph /  4.8 km/h 10.0 mph /  16.1 km/h 84 % 0.00 in /  0 mm
05:45 21.6 °F /  -5.8 °C 17.5 °F /  -8.1 °C 30.14 in /  1020.5 hPa Calm   8.0 mph /  12.9 km/h 84 % 0.00 in /  0 mm
05:49 21.0 °F /  -6.1 °C 17.0 °F /  -8.3 °C 30.17 in /  1021.6 hPa West 1.0 mph /  1.6 km/h 4.0 mph /  6.4 km/h 84 % 0.00 in /  0 mm
05:50 21.6 °F /  -5.8 °C 17.5 °F /  -8.1 °C 30.14 in /  1020.5 hPa Calm   8.0 mph /  12.9 km/h 84 % 0.00 in /  0 mm
05:55 21.6 °F /  -5.8 °C 17.5 °F /  -8.1 °C 30.14 in /  1020.5 hPa Calm   8.0 mph /  12.9 km/h 84 % 0.00 in /  0 mm
06:00 21.1 °F /  -6.1 °C 17.0 °F /  -8.3 °C 30.15 in /  1020.9 hPa NW 1.0 mph /  1.6 km/h 4.0 mph /  6.4 km/h 84 % 0.00 in /  0 mm
06:04 20.7 °F /  -6.3 °C 17.0 °F /  -8.3 °C 30.19 in /  1022.2 hPa NW 3.0 mph /  4.8 km/h 6.0 mph /  9.7 km/h 84 % 0.00 in /  0 mm
06:05 21.1 °F /  -6.1 °C 17.0 °F /  -8.3 °C 30.15 in /  1020.9 hPa NW 1.0 mph /  1.6 km/h 4.0 mph /  6.4 km/h 84 % 0.00 in /  0 mm
06:10 21.1 °F /  -6.1 °C 17.0 °F /  -8.3 °C 30.15 in /  1020.9 hPa NW 1.0 mph /  1.6 km/h 4.0 mph /  6.4 km/h 84 % 0.00 in /  0 mm
06:15 20.7 °F /  -6.3 °C 16.6 °F /  -8.6 °C 30.15 in /  1020.9 hPa NW 1.0 mph /  1.6 km/h 10.0 mph /  16.1 km/h 84 % 0.00 in /  0 mm
06:19 20.5 °F /  -6.4 °C 17.0 °F /  -8.3 °C 30.19 in /  1022.2 hPa WNW 2.0 mph /  3.2 km/h 10.0 mph /  16.1 km/h 85 % 0.00 in /  0 mm
06:20 20.7 °F /  -6.3 °C 16.6 °F /  -8.6 °C 30.15 in /  1020.9 hPa NW 1.0 mph /  1.6 km/h 10.0 mph /  16.1 km/h 84 % 0.00 in /  0 mm
06:25 20.7 °F /  -6.3 °C 16.6 °F /  -8.6 °C 30.15 in /  1020.9 hPa NW 1.0 mph /  1.6 km/h 10.0 mph /  16.1 km/h 84 % 0.00 in /  0 mm
06:30 20.6 °F /  -6.3 °C 16.8 °F /  -8.4 °C 30.16 in /  1021.2 hPa NW 2.0 mph /  3.2 km/h 12.0 mph /  19.3 km/h 85 % 0.00 in /  0 mm
06:34 20.5 °F /  -6.4 °C 17.0 °F /  -8.3 °C 30.18 in /  1021.9 hPa WNW 4.0 mph /  6.4 km/h 8.0 mph /  12.9 km/h 85 % 0.00 in /  0 mm
06:35 20.6 °F /  -6.3 °C 16.8 °F /  -8.4 °C 30.16 in /  1021.2 hPa NW 2.0 mph /  3.2 km/h 12.0 mph /  19.3 km/h 85 % 0.00 in /  0 mm
06:40 20.6 °F /  -6.3 °C 16.8 °F /  -8.4 °C 30.16 in /  1021.2 hPa NW 2.0 mph /  3.2 km/h 12.0 mph /  19.3 km/h 85 % 0.00 in /  0 mm
06:45 20.5 °F /  -6.4 °C 16.7 °F /  -8.5 °C 30.16 in /  1021.2 hPa NW 4.0 mph /  6.4 km/h 15.0 mph /  24.1 km/h 85 % 0.00 in /  0 mm
06:49 20.3 °F /  -6.5 °C 16.0 °F /  -8.9 °C 30.19 in /  1022.2 hPa NW 5.0 mph /  8 km/h 8.0 mph /  12.9 km/h 84 % 0.00 in /  0 mm
06:50 20.5 °F /  -6.4 °C 16.7 °F /  -8.5 °C 30.16 in /  1021.2 hPa NW 4.0 mph /  6.4 km/h 15.0 mph /  24.1 km/h 85 % 0.00 in /  0 mm
06:55 20.5 °F /  -6.4 °C 16.7 °F /  -8.5 °C 30.16 in /  1021.2 hPa NW 4.0 mph /  6.4 km/h 15.0 mph /  24.1 km/h 85 % 0.00 in /  0 mm
07:00 20.3 °F /  -6.5 °C 16.2 °F /  -8.8 °C 30.16 in /  1021.2 hPa NW 3.0 mph /  4.8 km/h 11.0 mph /  17.7 km/h 84 % 0.00 in /  0 mm
07:04 20.1 °F /  -6.6 °C 16.0 °F /  -8.9 °C 30.19 in /  1022.2 hPa WNW 4.0 mph /  6.4 km/h 9.0 mph /  14.5 km/h 84 % 0.00 in /  0 mm
07:05 20.3 °F /  -6.5 °C 16.2 °F /  -8.8 °C 30.16 in /  1021.2 hPa NW 3.0 mph /  4.8 km/h 11.0 mph /  17.7 km/h 84 % 0.00 in /  0 mm
07:10 20.3 °F /  -6.5 °C 16.2 °F /  -8.8 °C 30.16 in /  1021.2 hPa NW 3.0 mph /  4.8 km/h 11.0 mph /  17.7 km/h 84 % 0.00 in /  0 mm
07:15 20.1 °F /  -6.6 °C 16.0 °F /  -8.9 °C 30.16 in /  1021.2 hPa NW 4.0 mph /  6.4 km/h 16.0 mph /  25.7 km/h 84 % 0.00 in /  0 mm
07:19 20.0 °F /  -6.7 °C 16.0 °F /  -8.9 °C 30.20 in /  1022.6 hPa NW 5.0 mph /  8 km/h 9.0 mph /  14.5 km/h 84 % 0.00 in /  0 mm
07:20 20.1 °F /  -6.6 °C 16.0 °F /  -8.9 °C 30.16 in /  1021.2 hPa NW 4.0 mph /  6.4 km/h 16.0 mph /  25.7 km/h 84 % 0.00 in /  0 mm
07:25 20.1 °F /  -6.6 °C 16.0 °F /  -8.9 °C 30.16 in /  1021.2 hPa NW 4.0 mph /  6.4 km/h 16.0 mph /  25.7 km/h 84 % 0.00 in /  0 mm
07:30 20.1 °F /  -6.6 °C 16.3 °F /  -8.7 °C 30.17 in /  1021.6 hPa WNW 3.0 mph /  4.8 km/h 4.0 mph /  6.4 km/h 85 % 0.00 in /  0 mm
07:34 20.1 °F /  -6.6 °C 16.0 °F /  -8.9 °C 30.20 in /  1022.6 hPa WNW 1.0 mph /  1.6 km/h 5.0 mph /  8 km/h 85 % 0.00 in /  0 mm
07:42 20.1 °F /  -6.6 °C 16.3 °F /  -8.7 °C 30.17 in /  1021.6 hPa WNW 2.0 mph /  3.2 km/h 2.0 mph /  3.2 km/h 85 % 0.00 in /  0 mm
07:47 20.5 °F /  -6.4 °C 16.7 °F /  -8.5 °C 30.16 in /  1021.2 hPa Calm   6.0 mph /  9.7 km/h 85 % 0.00 in /  0 mm
07:52 20.7 °F /  -6.3 °C 16.9 °F /  -8.4 °C 30.17 in /  1021.6 hPa NW 3.0 mph /  4.8 km/h 8.0 mph /  12.9 km/h 85 % 0.00 in /  0 mm
07:57 20.9 °F /  -6.2 °C 17.1 °F /  -8.3 °C 30.17 in /  1021.6 hPa Calm   3.0 mph /  4.8 km/h 85 % 0.00 in /  0 mm
08:02 21.2 °F /  -6 °C 17.4 °F /  -8.1 °C 30.17 in /  1021.6 hPa NNW 4.0 mph /  6.4 km/h 4.0 mph /  6.4 km/h 85 % 0.00 in /  0 mm
08:07 21.5 °F /  -5.8 °C 17.7 °F /  -7.9 °C 30.17 in /  1021.6 hPa NNW 5.0 mph /  8 km/h 14.0 mph /  22.5 km/h 85 % 0.00 in /  0 mm
08:12 21.6 °F /  -5.8 °C 17.8 °F /  -7.9 °C 30.16 in /  1021.2 hPa NNW 5.0 mph /  8 km/h 11.0 mph /  17.7 km/h 85 % 0.00 in /  0 mm
08:17 21.9 °F /  -5.6 °C 17.8 °F /  -7.9 °C 30.16 in /  1021.2 hPa NW 1.0 mph /  1.6 km/h 6.0 mph /  9.7 km/h 84 % 0.00 in /  0 mm
08:22 22.2 °F /  -5.4 °C 18.1 °F /  -7.7 °C 30.16 in /  1021.2 hPa NW 9.0 mph /  14.5 km/h 10.0 mph /  16.1 km/h 84 % 0.00 in /  0 mm
08:27 22.4 °F /  -5.3 °C 18.3 °F /  -7.6 °C 30.16 in /  1021.2 hPa WNW 1.0 mph /  1.6 km/h 8.0 mph /  12.9 km/h 84 % 0.00 in /  0 mm
08:32 22.7 °F /  -5.2 °C 18.6 °F /  -7.4 °C 30.16 in /  1021.2 hPa NW 6.0 mph /  9.7 km/h 8.0 mph /  12.9 km/h 84 % 0.00 in /  0 mm
08:37 23.0 °F /  -5 °C 18.6 °F /  -7.4 °C 30.16 in /  1021.2 hPa NNW 5.0 mph /  8 km/h 13.0 mph /  20.9 km/h 83 % 0.00 in /  0 mm
08:42 23.1 °F /  -4.9 °C 18.4 °F /  -7.6 °C 30.16 in /  1021.2 hPa West 4.0 mph /  6.4 km/h 8.0 mph /  12.9 km/h 82 % 0.00 in /  0 mm
08:47 23.5 °F /  -4.7 °C 18.8 °F /  -7.3 °C 30.17 in /  1021.6 hPa West 6.0 mph /  9.7 km/h 8.0 mph /  12.9 km/h 82 % 0.00 in /  0 mm
08:52 23.8 °F /  -4.6 °C 19.1 °F /  -7.2 °C 30.16 in /  1021.2 hPa NW 2.0 mph /  3.2 km/h 9.0 mph /  14.5 km/h 82 % 0.00 in /  0 mm
08:57 24.0 °F /  -4.4 °C 19.0 °F /  -7.2 °C 30.16 in /  1021.2 hPa NNW 2.0 mph /  3.2 km/h 8.0 mph /  12.9 km/h 81 % 0.00 in /  0 mm
09:02 24.1 °F /  -4.4 °C 19.1 °F /  -7.2 °C 30.16 in /  1021.2 hPa WNW 4.0 mph /  6.4 km/h 11.0 mph /  17.7 km/h 81 % 0.00 in /  0 mm
09:07 24.3 °F /  -4.3 °C 19.0 °F /  -7.2 °C 30.16 in /  1021.2 hPa NNW 5.0 mph /  8 km/h 10.0 mph /  16.1 km/h 80 % 0.00 in /  0 mm
09:10 24.5 °F /  -4.2 °C 19.2 °F /  -7.1 °C 30.16 in /  1021.2 hPa NW 6.0 mph /  9.7 km/h 10.0 mph /  16.1 km/h 80 % 0.00 in /  0 mm
09:15 24.5 °F /  -4.2 °C 19.2 °F /  -7.1 °C 30.16 in /  1021.2 hPa NW 6.0 mph /  9.7 km/h 11.0 mph /  17.7 km/h 80 % 0.00 in /  0 mm
09:19 25.1 °F /  -3.8 °C 19.0 °F /  -7.2 °C 30.20 in /  1022.6 hPa WNW 4.0 mph /  6.4 km/h 9.0 mph /  14.5 km/h 79 % 0.00 in /  0 mm
09:20 24.5 °F /  -4.2 °C 19.2 °F /  -7.1 °C 30.16 in /  1021.2 hPa NW 6.0 mph /  9.7 km/h 11.0 mph /  17.7 km/h 80 % 0.00 in /  0 mm
09:25 25.0 °F /  -3.9 °C 19.4 °F /  -7 °C 30.16 in /  1021.2 hPa NW 6.0 mph /  9.7 km/h 15.0 mph /  24.1 km/h 79 % 0.00 in /  0 mm
09:30 25.0 °F /  -3.9 °C 19.4 °F /  -7 °C 30.16 in /  1021.2 hPa NW 6.0 mph /  9.7 km/h 15.0 mph /  24.1 km/h 79 % 0.00 in /  0 mm
09:34 26.1 °F /  -3.3 °C 20.0 °F /  -6.7 °C 30.20 in /  1022.6 hPa NNW 5.0 mph /  8 km/h 13.0 mph /  20.9 km/h 77 % 0.00 in /  0 mm
09:35 25.0 °F /  -3.9 °C 19.4 °F /  -7 °C 30.16 in /  1021.2 hPa NW 6.0 mph /  9.7 km/h 15.0 mph /  24.1 km/h 79 % 0.00 in /  0 mm
09:40 26.0 °F /  -3.3 °C 19.8 °F /  -6.8 °C 30.17 in /  1021.6 hPa NNW 7.0 mph /  11.3 km/h 17.0 mph /  27.4 km/h 77 % 0.00 in /  0 mm
09:45 26.0 °F /  -3.3 °C 19.8 °F /  -6.8 °C 30.17 in /  1021.6 hPa NNW 7.0 mph /  11.3 km/h 17.0 mph /  27.4 km/h 77 % 0.00 in /  0 mm
09:50 26.6 °F /  -3 °C 20.0 °F /  -6.7 °C 30.20 in /  1022.6 hPa NW 4.0 mph /  6.4 km/h 13.0 mph /  20.9 km/h 75 % 0.00 in /  0 mm
09:55 26.5 °F /  -3.1 °C 19.7 °F /  -6.8 °C 30.17 in /  1021.6 hPa NNW 7.0 mph /  11.3 km/h 14.0 mph /  22.5 km/h 75 % 0.00 in /  0 mm
10:00 26.5 °F /  -3.1 °C 19.7 °F /  -6.8 °C 30.17 in /  1021.6 hPa NNW 7.0 mph /  11.3 km/h 14.0 mph /  22.5 km/h 75 % 0.00 in /  0 mm
10:05 27.2 °F /  -2.7 °C 20.0 °F /  -6.7 °C 30.20 in /  1022.6 hPa NNW 5.0 mph /  8 km/h 12.0 mph /  19.3 km/h 75 % 0.00 in /  0 mm
10:10 27.1 °F /  -2.7 °C 20.2 °F /  -6.6 °C 30.17 in /  1021.6 hPa NW 6.0 mph /  9.7 km/h 16.0 mph /  25.7 km/h 75 % 0.00 in /  0 mm
10:15 27.1 °F /  -2.7 °C 20.2 °F /  -6.6 °C 30.17 in /  1021.6 hPa NW 6.0 mph /  9.7 km/h 16.0 mph /  25.7 km/h 75 % 0.00 in /  0 mm
10:20 27.9 °F /  -2.3 °C 20.0 °F /  -6.7 °C 30.19 in /  1022.2 hPa NW 3.0 mph /  4.8 km/h 13.0 mph /  20.9 km/h 72 % 0.00 in /  0 mm
10:25 27.9 °F /  -2.3 °C 20.1 °F /  -6.6 °C 30.17 in /  1021.6 hPa NW 7.0 mph /  11.3 km/h 17.0 mph /  27.4 km/h 72 % 0.00 in /  0 mm
10:30 27.9 °F /  -2.3 °C 20.1 °F /  -6.6 °C 30.17 in /  1021.6 hPa NW 7.0 mph /  11.3 km/h 17.0 mph /  27.4 km/h 72 % 0.00 in /  0 mm
10:35 28.5 °F /  -1.9 °C 20.0 °F /  -6.7 °C 30.19 in /  1022.2 hPa NW 8.0 mph /  12.9 km/h 14.0 mph /  22.5 km/h 71 % 0.00 in /  0 mm
10:40 28.4 °F /  -2 °C 20.2 °F /  -6.6 °C 30.16 in /  1021.2 hPa NW 7.0 mph /  11.3 km/h 14.0 mph /  22.5 km/h 71 % 0.00 in /  0 mm
10:45 28.4 °F /  -2 °C 20.2 °F /  -6.6 °C 30.16 in /  1021.2 hPa NW 7.0 mph /  11.3 km/h 14.0 mph /  22.5 km/h 71 % 0.00 in /  0 mm
10:50 28.6 °F /  -1.9 °C 20.0 °F /  -6.7 °C 30.19 in /  1022.2 hPa WNW 2.0 mph /  3.2 km/h 13.0 mph /  20.9 km/h 71 % 0.00 in /  0 mm
10:55 28.5 °F /  -1.9 °C 20.0 °F /  -6.7 °C 30.16 in /  1021.2 hPa NNW 6.0 mph /  9.7 km/h 19.0 mph /  30.6 km/h 70 % 0.00 in /  0 mm
11:00 28.5 °F /  -1.9 °C 20.0 °F /  -6.7 °C 30.16 in /  1021.2 hPa NNW 6.0 mph /  9.7 km/h 19.0 mph /  30.6 km/h 70 % 0.00 in /  0 mm
11:05 29.2 °F /  -1.6 °C 21.0 °F /  -6.1 °C 30.19 in /  1022.2 hPa WNW 2.0 mph /  3.2 km/h 14.0 mph /  22.5 km/h 70 % 0.00 in /  0 mm
11:10 29.1 °F /  -1.6 °C 20.5 °F /  -6.4 °C 30.16 in /  1021.2 hPa NW 6.0 mph /  9.7 km/h 17.0 mph /  27.4 km/h 70 % 0.00 in /  0 mm
11:15 29.1 °F /  -1.6 °C 20.5 °F /  -6.4 °C 30.16 in /  1021.2 hPa NW 6.0 mph /  9.7 km/h 17.0 mph /  27.4 km/h 70 % 0.00 in /  0 mm
11:20 29.6 °F /  -1.3 °C 21.0 °F /  -6.1 °C 30.19 in /  1022.2 hPa WNW 3.0 mph /  4.8 km/h 15.0 mph /  24.1 km/h 69 % 0.00 in /  0 mm
11:25 29.4 °F /  -1.4 °C 20.5 °F /  -6.4 °C 30.16 in /  1021.2 hPa NNW 6.0 mph /  9.7 km/h 17.0 mph /  27.4 km/h 69 % 0.00 in /  0 mm
11:30 29.4 °F /  -1.4 °C 20.5 °F /  -6.4 °C 30.16 in /  1021.2 hPa NNW 6.0 mph /  9.7 km/h 17.0 mph /  27.4 km/h 69 % 0.00 in /  0 mm
11:35 29.6 °F /  -1.3 °C 20.0 °F /  -6.7 °C 30.19 in /  1022.2 hPa NW 5.0 mph /  8 km/h 12.0 mph /  19.3 km/h 68 % 0.00 in /  0 mm
11:40 29.5 °F /  -1.4 °C 20.3 °F /  -6.5 °C 30.16 in /  1021.2 hPa NW 6.0 mph /  9.7 km/h 15.0 mph /  24.1 km/h 68 % 0.00 in /  0 mm
11:45 29.5 °F /  -1.4 °C 20.3 °F /  -6.5 °C 30.16 in /  1021.2 hPa NW 6.0 mph /  9.7 km/h 15.0 mph /  24.1 km/h 68 % 0.00 in /  0 mm
11:50 30.3 °F /  -0.9 °C 20.0 °F /  -6.7 °C 30.19 in /  1022.2 hPa NNW 11.0 mph /  17.7 km/h 13.0 mph /  20.9 km/h 67 % 0.00 in /  0 mm
11:55 30.2 °F /  -1 °C 20.6 °F /  -6.3 °C 30.16 in /  1021.2 hPa NW 6.0 mph /  9.7 km/h 15.0 mph /  24.1 km/h 67 % 0.00 in /  0 mm
12:00 30.2 °F /  -1 °C 20.6 °F /  -6.3 °C 30.16 in /  1021.2 hPa NW 6.0 mph /  9.7 km/h 15.0 mph /  24.1 km/h 67 % 0.00 in /  0 mm
12:05 31.1 °F /  -0.5 °C 20.0 °F /  -6.7 °C 30.19 in /  1022.2 hPa NNW 5.0 mph /  8 km/h 14.0 mph /  22.5 km/h 63 % 0.00 in /  0 mm
12:10 31.1 °F /  -0.5 °C 20.0 °F /  -6.7 °C 30.16 in /  1021.2 hPa NW 6.0 mph /  9.7 km/h 16.0 mph /  25.7 km/h 63 % 0.00 in /  0 mm
12:15 31.1 °F /  -0.5 °C 20.0 °F /  -6.7 °C 30.16 in /  1021.2 hPa NW 6.0 mph /  9.7 km/h 16.0 mph /  25.7 km/h 63 % 0.00 in /  0 mm
12:20 30.8 °F /  -0.7 °C 19.0 °F /  -7.2 °C 30.18 in /  1021.9 hPa West 4.0 mph /  6.4 km/h 15.0 mph /  24.1 km/h 63 % 0.00 in /  0 mm
12:25 30.8 °F /  -0.7 °C 19.7 °F /  -6.8 °C 30.16 in /  1021.2 hPa NW 9.0 mph /  14.5 km/h 19.0 mph /  30.6 km/h 63 % 0.00 in /  0 mm
12:30 30.8 °F /  -0.7 °C 19.7 °F /  -6.8 °C 30.16 in /  1021.2 hPa NW 9.0 mph /  14.5 km/h 19.0 mph /  30.6 km/h 63 % 0.00 in /  0 mm
12:35 31.5 °F /  -0.3 °C 21.0 °F /  -6.1 °C 30.18 in /  1021.9 hPa NNW 10.0 mph /  16.1 km/h 16.0 mph /  25.7 km/h 65 % 0.00 in /  0 mm
12:40 31.4 °F /  -0.3 °C 20.7 °F /  -6.3 °C 30.15 in /  1020.9 hPa NW 7.0 mph /  11.3 km/h 17.0 mph /  27.4 km/h 64 % 0.00 in /  0 mm
12:45 31.4 °F /  -0.3 °C 20.7 °F /  -6.3 °C 30.15 in /  1020.9 hPa NW 7.0 mph /  11.3 km/h 17.0 mph /  27.4 km/h 64 % 0.00 in /  0 mm
12:50 31.3 °F /  -0.4 °C 20.0 °F /  -6.7 °C 30.18 in /  1021.9 hPa WNW 4.0 mph /  6.4 km/h 16.0 mph /  25.7 km/h 64 % 0.00 in /  0 mm
12:55 31.4 °F /  -0.3 °C 20.7 °F /  -6.3 °C 30.14 in /  1020.5 hPa NW 9.0 mph /  14.5 km/h 20.0 mph /  32.2 km/h 64 % 0.00 in /  0 mm
13:00 31.4 °F /  -0.3 °C 20.7 °F /  -6.3 °C 30.14 in /  1020.5 hPa NW 9.0 mph /  14.5 km/h 20.0 mph /  32.2 km/h 64 % 0.00 in /  0 mm
13:05 31.6 °F /  -0.2 °C 21.0 °F /  -6.1 °C 30.18 in /  1021.9 hPa NW 5.0 mph /  8 km/h 15.0 mph /  24.1 km/h 66 % 0.00 in /  0 mm
13:10 31.5 °F /  -0.3 °C 21.1 °F /  -6.1 °C 30.15 in /  1020.9 hPa NW 8.0 mph /  12.9 km/h 16.0 mph /  25.7 km/h 65 % 0.00 in /  0 mm
13:15 31.5 °F /  -0.3 °C 21.1 °F /  -6.1 °C 30.15 in /  1020.9 hPa NW 8.0 mph /  12.9 km/h 16.0 mph /  25.7 km/h 65 % 0.00 in /  0 mm
13:20 31.5 °F /  -0.3 °C 21.0 °F /  -6.1 °C 30.18 in /  1021.9 hPa NW 3.0 mph /  4.8 km/h 15.0 mph /  24.1 km/h 65 % 0.00 in /  0 mm
13:25 31.7 °F /  -0.2 °C 21.3 °F /  -5.9 °C 30.14 in /  1020.5 hPa NNW 8.0 mph /  12.9 km/h 18.0 mph /  29 km/h 65 % 0.00 in /  0 mm
13:30 31.7 °F /  -0.2 °C 21.3 °F /  -5.9 °C 30.14 in /  1020.5 hPa NNW 8.0 mph /  12.9 km/h 18.0 mph /  29 km/h 65 % 0.00 in /  0 mm
13:35 31.3 °F /  -0.4 °C 21.0 °F /  -6.1 °C 30.18 in /  1021.9 hPa NW 5.0 mph /  8 km/h 13.0 mph /  20.9 km/h 67 % 0.00 in /  0 mm
13:40 31.4 °F /  -0.3 °C 21.7 °F /  -5.7 °C 30.14 in /  1020.5 hPa NW 7.0 mph /  11.3 km/h 18.0 mph /  29 km/h 67 % 0.00 in /  0 mm
13:45 31.4 °F /  -0.3 °C 21.7 °F /  -5.7 °C 30.14 in /  1020.5 hPa NW 7.0 mph /  11.3 km/h 18.0 mph /  29 km/h 67 % 0.00 in /  0 mm
13:50 30.3 °F /  -0.9 °C 22.0 °F /  -5.6 °C 30.17 in /  1021.6 hPa WNW 10.0 mph /  16.1 km/h 11.0 mph /  17.7 km/h 71 % 0.00 in /  0 mm
13:55 30.4 °F /  -0.9 °C 21.8 °F /  -5.7 °C 30.14 in /  1020.5 hPa NNW 6.0 mph /  9.7 km/h 16.0 mph /  25.7 km/h 70 % 0.00 in /  0 mm
14:00 30.4 °F /  -0.9 °C 21.8 °F /  -5.7 °C 30.14 in /  1020.5 hPa NNW 6.0 mph /  9.7 km/h 16.0 mph /  25.7 km/h 70 % 0.00 in /  0 mm
14:05 29.7 °F /  -1.3 °C 23.0 °F /  -5 °C 30.17 in /  1021.6 hPa NW 12.0 mph /  19.3 km/h 14.0 mph /  22.5 km/h 75 % 0.00 in /  0 mm
14:10 29.7 °F /  -1.3 °C 22.8 °F /  -5.1 °C 30.14 in /  1020.5 hPa NW 7.0 mph /  11.3 km/h 15.0 mph /  24.1 km/h 75 % 0.00 in /  0 mm
14:15 29.7 °F /  -1.3 °C 22.8 °F /  -5.1 °C 30.14 in /  1020.5 hPa NW 7.0 mph /  11.3 km/h 15.0 mph /  24.1 km/h 75 % 0.00 in /  0 mm
14:20 29.9 °F /  -1.2 °C 24.0 °F /  -4.4 °C 30.17 in /  1021.6 hPa NW 3.0 mph /  4.8 km/h 6.0 mph /  9.7 km/h 77 % 0.00 in /  0 mm
14:25 29.8 °F /  -1.2 °C 23.5 °F /  -4.7 °C 30.14 in /  1020.5 hPa NW 5.0 mph /  8 km/h 14.0 mph /  22.5 km/h 77 % 0.00 in /  0 mm
14:30 29.8 °F /  -1.2 °C 23.5 °F /  -4.7 °C 30.14 in /  1020.5 hPa NW 5.0 mph /  8 km/h 14.0 mph /  22.5 km/h 77 % 0.00 in /  0 mm
14:35 29.9 °F /  -1.2 °C 24.0 °F /  -4.4 °C 30.17 in /  1021.6 hPa West 1.0 mph /  1.6 km/h 9.0 mph /  14.5 km/h 77 % 0.00 in /  0 mm
14:40 29.9 °F /  -1.2 °C 23.6 °F /  -4.7 °C 30.14 in /  1020.5 hPa NW 5.0 mph /  8 km/h 13.0 mph /  20.9 km/h 77 % 0.00 in /  0 mm
14:45 29.9 °F /  -1.2 °C 23.6 °F /  -4.7 °C 30.14 in /  1020.5 hPa NW 5.0 mph /  8 km/h 13.0 mph /  20.9 km/h 77 % 0.00 in /  0 mm
14:50 29.9 °F /  -1.2 °C 23.6 °F /  -4.7 °C 30.14 in /  1020.5 hPa NW 5.0 mph /  8 km/h 13.0 mph /  20.9 km/h 77 % 0.00 in /  0 mm
14:55 30.3 °F /  -0.9 °C 24.0 °F /  -4.4 °C 30.17 in /  1021.6 hPa WNW 4.0 mph /  6.4 km/h 11.0 mph /  17.7 km/h 76 % 0.00 in /  0 mm
15:00 30.3 °F /  -0.9 °C 23.7 °F /  -4.6 °C 30.13 in /  1020.2 hPa NW 5.0 mph /  8 km/h 14.0 mph /  22.5 km/h 76 % 0.00 in /  0 mm
15:05 30.2 °F /  -1 °C 24.0 °F /  -4.4 °C 30.17 in /  1021.6 hPa WNW 4.0 mph /  6.4 km/h 11.0 mph /  17.7 km/h 77 % 0.00 in /  0 mm
15:10 30.3 °F /  -0.9 °C 23.7 °F /  -4.6 °C 30.14 in /  1020.5 hPa NW 5.0 mph /  8 km/h 13.0 mph /  20.9 km/h 76 % 0.00 in /  0 mm
15:15 30.3 °F /  -0.9 °C 23.7 °F /  -4.6 °C 30.14 in /  1020.5 hPa NW 5.0 mph /  8 km/h 13.0 mph /  20.9 km/h 76 % 0.00 in /  0 mm
15:20 30.3 °F /  -0.9 °C 23.7 °F /  -4.6 °C 30.14 in /  1020.5 hPa NW 5.0 mph /  8 km/h 13.0 mph /  20.9 km/h 76 % 0.00 in /  0 mm
15:25 29.6 °F /  -1.3 °C 24.2 °F /  -4.3 °C 30.14 in /  1020.5 hPa NW 5.0 mph /  8 km/h 14.0 mph /  22.5 km/h 80 % 0.00 in /  0 mm
15:28 29.5 °F /  -1.4 °C 24.0 °F /  -4.4 °C 30.17 in /  1021.6 hPa WNW 4.0 mph /  6.4 km/h 10.0 mph /  16.1 km/h 81 % 0.00 in /  0 mm
15:30 29.6 °F /  -1.3 °C 24.2 °F /  -4.3 °C 30.14 in /  1020.5 hPa NW 5.0 mph /  8 km/h 14.0 mph /  22.5 km/h 80 % 0.00 in /  0 mm
15:35 28.9 °F /  -1.7 °C 24.0 °F /  -4.4 °C 30.17 in /  1021.6 hPa NW 2.0 mph /  3.2 km/h 11.0 mph /  17.7 km/h 83 % 0.00 in /  0 mm
15:40 29.0 °F /  -1.7 °C 24.5 °F /  -4.2 °C 30.14 in /  1020.5 hPa NW 4.0 mph /  6.4 km/h 12.0 mph /  19.3 km/h 83 % 0.00 in /  0 mm
15:45 29.0 °F /  -1.7 °C 24.5 °F /  -4.2 °C 30.14 in /  1020.5 hPa NW 4.0 mph /  6.4 km/h 12.0 mph /  19.3 km/h 83 % 0.00 in /  0 mm
15:50 28.4 °F /  -2 °C 24.0 °F /  -4.4 °C 30.17 in /  1021.6 hPa NW 4.0 mph /  6.4 km/h 12.0 mph /  19.3 km/h 84 % 0.00 in /  0 mm
15:55 28.4 °F /  -2 °C 24.2 °F /  -4.3 °C 30.14 in /  1020.5 hPa NNW 4.0 mph /  6.4 km/h 12.0 mph /  19.3 km/h 84 % 0.00 in /  0 mm
16:00 28.4 °F /  -2 °C 24.2 °F /  -4.3 °C 30.14 in /  1020.5 hPa NNW 4.0 mph /  6.4 km/h 12.0 mph /  19.3 km/h 84 % 0.00 in /  0 mm
16:05 28.4 °F /  -2 °C 25.0 °F /  -3.9 °C 30.17 in /  1021.6 hPa NW 5.0 mph /  8 km/h 8.0 mph /  12.9 km/h 86 % 0.00 in /  0 mm
16:10 28.4 °F /  -2 °C 24.8 °F /  -4 °C 30.14 in /  1020.5 hPa NNW 4.0 mph /  6.4 km/h 10.0 mph /  16.1 km/h 86 % 0.00 in /  0 mm
16:15 28.4 °F /  -2 °C 24.8 °F /  -4 °C 30.14 in /  1020.5 hPa NNW 4.0 mph /  6.4 km/h 10.0 mph /  16.1 km/h 86 % 0.00 in /  0 mm
16:20 28.3 °F /  -2.1 °C 25.0 °F /  -3.9 °C 30.18 in /  1021.9 hPa NW 2.0 mph /  3.2 km/h 5.0 mph /  8 km/h 87 % 0.00 in /  0 mm
16:25 28.3 °F /  -2.1 °C 24.9 °F /  -3.9 °C 30.14 in /  1020.5 hPa NNW 3.0 mph /  4.8 km/h 9.0 mph /  14.5 km/h 87 % 0.00 in /  0 mm
16:30 28.3 °F /  -2.1 °C 24.9 °F /  -3.9 °C 30.14 in /  1020.5 hPa NNW 3.0 mph /  4.8 km/h 9.0 mph /  14.5 km/h 87 % 0.00 in /  0 mm
16:35 28.3 °F /  -2.1 °C 25.0 °F /  -3.9 °C 30.18 in /  1021.9 hPa North 3.0 mph /  4.8 km/h 11.0 mph /  17.7 km/h 87 % 0.00 in /  0 mm
16:40 28.3 °F /  -2.1 °C 24.9 °F /  -3.9 °C 30.14 in /  1020.5 hPa NW 4.0 mph /  6.4 km/h 12.0 mph /  19.3 km/h 87 % 0.00 in /  0 mm
16:45 28.3 °F /  -2.1 °C 24.9 °F /  -3.9 °C 30.14 in /  1020.5 hPa NW 4.0 mph /  6.4 km/h 12.0 mph /  19.3 km/h 87 % 0.00 in /  0 mm
16:50 28.2 °F /  -2.1 °C 25.0 °F /  -3.9 °C 30.18 in /  1021.9 hPa NW 2.0 mph /  3.2 km/h 13.0 mph /  20.9 km/h 88 % 0.00 in /  0 mm
16:55 28.3 °F /  -2.1 °C 25.2 °F /  -3.8 °C 30.15 in /  1020.9 hPa NW 5.0 mph /  8 km/h 15.0 mph /  24.1 km/h 88 % 0.00 in /  0 mm
17:00 28.3 °F /  -2.1 °C 25.2 °F /  -3.8 °C 30.15 in /  1020.9 hPa NW 5.0 mph /  8 km/h 15.0 mph /  24.1 km/h 88 % 0.00 in /  0 mm
17:05 27.7 °F /  -2.4 °C 24.0 °F /  -4.4 °C 30.19 in /  1022.2 hPa WNW 7.0 mph /  11.3 km/h 16.0 mph /  25.7 km/h 87 % 0.00 in /  0 mm
17:10 27.7 °F /  -2.4 °C 24.4 °F /  -4.2 °C 30.16 in /  1021.2 hPa NW 7.0 mph /  11.3 km/h 22.0 mph /  35.4 km/h 87 % 0.00 in /  0 mm
17:15 27.7 °F /  -2.4 °C 24.4 °F /  -4.2 °C 30.16 in /  1021.2 hPa NW 7.0 mph /  11.3 km/h 22.0 mph /  35.4 km/h 87 % 0.00 in /  0 mm
17:20 27.6 °F /  -2.4 °C 24.0 °F /  -4.4 °C 30.19 in /  1022.2 hPa WNW 2.0 mph /  3.2 km/h 10.0 mph /  16.1 km/h 87 % 0.00 in /  0 mm
17:25 27.6 °F /  -2.4 °C 24.2 °F /  -4.3 °C 30.16 in /  1021.2 hPa NW 6.0 mph /  9.7 km/h 14.0 mph /  22.5 km/h 87 % 0.00 in /  0 mm
17:30 27.6 °F /  -2.4 °C 24.2 °F /  -4.3 °C 30.16 in /  1021.2 hPa NW 6.0 mph /  9.7 km/h 14.0 mph /  22.5 km/h 87 % 0.00 in /  0 mm
17:35 27.4 °F /  -2.6 °C 24.0 °F /  -4.4 °C 30.20 in /  1022.6 hPa West 2.0 mph /  3.2 km/h 13.0 mph /  20.9 km/h 85 % 0.00 in /  0 mm
17:40 27.4 °F /  -2.6 °C 23.8 °F /  -4.6 °C 30.16 in /  1021.2 hPa NW 6.0 mph /  9.7 km/h 16.0 mph /  25.7 km/h 86 % 0.00 in /  0 mm
17:45 27.4 °F /  -2.6 °C 23.8 °F /  -4.6 °C 30.16 in /  1021.2 hPa NW 6.0 mph /  9.7 km/h 16.0 mph /  25.7 km/h 86 % 0.00 in /  0 mm
17:50 27.2 °F /  -2.7 °C 24.0 °F /  -4.4 °C 30.20 in /  1022.6 hPa NNE 3.0 mph /  4.8 km/h 8.0 mph /  12.9 km/h 86 % 0.00 in /  0 mm
17:55 27.2 °F /  -2.7 °C 23.6 °F /  -4.7 °C 30.17 in /  1021.6 hPa NW 4.0 mph /  6.4 km/h 13.0 mph /  20.9 km/h 86 % 0.00 in /  0 mm
18:00 27.2 °F /  -2.7 °C 23.6 °F /  -4.7 °C 30.17 in /  1021.6 hPa NW 4.0 mph /  6.4 km/h 13.0 mph /  20.9 km/h 86 % 0.00 in /  0 mm
18:05 26.9 °F /  -2.8 °C 23.0 °F /  -5 °C 30.20 in /  1022.6 hPa NW 10.0 mph /  16.1 km/h 13.0 mph /  20.9 km/h 86 % 0.00 in /  0 mm
18:10 27.0 °F /  -2.8 °C 23.4 °F /  -4.8 °C 30.17 in /  1021.6 hPa NNW 5.0 mph /  8 km/h 17.0 mph /  27.4 km/h 86 % 0.00 in /  0 mm
18:15 27.0 °F /  -2.8 °C 23.4 °F /  -4.8 °C 30.17 in /  1021.6 hPa NNW 5.0 mph /  8 km/h 17.0 mph /  27.4 km/h 86 % 0.00 in /  0 mm
18:20 26.7 °F /  -2.9 °C 23.0 °F /  -5 °C 30.21 in /  1022.9 hPa WNW 7.0 mph /  11.3 km/h 11.0 mph /  17.7 km/h 87 % 0.00 in /  0 mm
18:25 26.7 °F /  -2.9 °C 23.4 °F /  -4.8 °C 30.17 in /  1021.6 hPa NW 3.0 mph /  4.8 km/h 15.0 mph /  24.1 km/h 87 % 0.00 in /  0 mm
18:30 26.7 °F /  -2.9 °C 23.4 °F /  -4.8 °C 30.17 in /  1021.6 hPa NW 3.0 mph /  4.8 km/h 15.0 mph /  24.1 km/h 87 % 0.00 in /  0 mm
18:35 26.4 °F /  -3.1 °C 23.0 °F /  -5 °C 30.21 in /  1022.9 hPa WNW 3.0 mph /  4.8 km/h 11.0 mph /  17.7 km/h 87 % 0.00 in /  0 mm
18:40 26.5 °F /  -3.1 °C 23.2 °F /  -4.9 °C 30.18 in /  1021.9 hPa NW 5.0 mph /  8 km/h 14.0 mph /  22.5 km/h 87 % 0.00 in /  0 mm
18:45 26.5 °F /  -3.1 °C 23.2 °F /  -4.9 °C 30.18 in /  1021.9 hPa NW 5.0 mph /  8 km/h 14.0 mph /  22.5 km/h 87 % 0.00 in /  0 mm
18:50 26.2 °F /  -3.2 °C 23.0 °F /  -5 °C 30.21 in /  1022.9 hPa NW 3.0 mph /  4.8 km/h 12.0 mph /  19.3 km/h 87 % 0.00 in /  0 mm
18:55 26.2 °F /  -3.2 °C 22.9 °F /  -5.1 °C 30.18 in /  1021.9 hPa NW 4.0 mph /  6.4 km/h 12.0 mph /  19.3 km/h 87 % 0.00 in /  0 mm
19:00 26.2 °F /  -3.2 °C 22.9 °F /  -5.1 °C 30.18 in /  1021.9 hPa NW 4.0 mph /  6.4 km/h 12.0 mph /  19.3 km/h 87 % 0.00 in /  0 mm
19:05 26.1 °F /  -3.3 °C 23.0 °F /  -5 °C 30.21 in /  1022.9 hPa WNW 3.0 mph /  4.8 km/h 8.0 mph /  12.9 km/h 87 % 0.00 in /  0 mm
19:10 26.1 °F /  -3.3 °C 22.8 °F /  -5.1 °C 30.18 in /  1021.9 hPa NW 6.0 mph /  9.7 km/h 16.0 mph /  25.7 km/h 87 % 0.00 in /  0 mm
19:15 26.1 °F /  -3.3 °C 22.8 °F /  -5.1 °C 30.18 in /  1021.9 hPa NW 6.0 mph /  9.7 km/h 16.0 mph /  25.7 km/h 87 % 0.00 in /  0 mm
19:20 26.0 °F /  -3.3 °C 22.0 °F /  -5.6 °C 30.22 in /  1023.2 hPa West 7.0 mph /  11.3 km/h 9.0 mph /  14.5 km/h 86 % 0.00 in /  0 mm
19:25 26.1 °F /  -3.3 °C 22.5 °F /  -5.3 °C 30.19 in /  1022.2 hPa NW 3.0 mph /  4.8 km/h 13.0 mph /  20.9 km/h 86 % 0.00 in /  0 mm
19:30 26.1 °F /  -3.3 °C 22.5 °F /  -5.3 °C 30.19 in /  1022.2 hPa NW 3.0 mph /  4.8 km/h 13.0 mph /  20.9 km/h 86 % 0.00 in /  0 mm
19:35 26.1 °F /  -3.3 °C 23.0 °F /  -5 °C 30.22 in /  1023.2 hPa NW 2.0 mph /  3.2 km/h 10.0 mph /  16.1 km/h 86 % 0.00 in /  0 mm
19:40 26.0 °F /  -3.3 °C 22.4 °F /  -5.3 °C 30.19 in /  1022.2 hPa NW 4.0 mph /  6.4 km/h 14.0 mph /  22.5 km/h 86 % 0.00 in /  0 mm
19:45 26.0 °F /  -3.3 °C 22.4 °F /  -5.3 °C 30.19 in /  1022.2 hPa NW 4.0 mph /  6.4 km/h 14.0 mph /  22.5 km/h 86 % 0.00 in /  0 mm
19:50 26.0 °F /  -3.3 °C 22.0 °F /  -5.6 °C 30.23 in /  1023.6 hPa NW 4.0 mph /  6.4 km/h 9.0 mph /  14.5 km/h 85 % 0.00 in /  0 mm
19:55 26.0 °F /  -3.3 °C 22.1 °F /  -5.5 °C 30.19 in /  1022.2 hPa NW 3.0 mph /  4.8 km/h 11.0 mph /  17.7 km/h 85 % 0.00 in /  0 mm
20:00 26.0 °F /  -3.3 °C 22.1 °F /  -5.5 °C 30.19 in /  1022.2 hPa NW 3.0 mph /  4.8 km/h 11.0 mph /  17.7 km/h 85 % 0.00 in /  0 mm
20:05 25.8 °F /  -3.4 °C 22.0 °F /  -5.6 °C 30.23 in /  1023.6 hPa NW 2.0 mph /  3.2 km/h 10.0 mph /  16.1 km/h 85 % 0.00 in /  0 mm
20:10 25.9 °F /  -3.4 °C 22.0 °F /  -5.6 °C 30.20 in /  1022.6 hPa NW 4.0 mph /  6.4 km/h 12.0 mph /  19.3 km/h 85 % 0.00 in /  0 mm
20:15 25.9 °F /  -3.4 °C 22.0 °F /  -5.6 °C 30.20 in /  1022.6 hPa NW 4.0 mph /  6.4 km/h 12.0 mph /  19.3 km/h 85 % 0.00 in /  0 mm
20:20 25.7 °F /  -3.5 °C 22.0 °F /  -5.6 °C 30.23 in /  1023.6 hPa NW 2.0 mph /  3.2 km/h 11.0 mph /  17.7 km/h 85 % 0.00 in /  0 mm
20:25 25.8 °F /  -3.4 °C 21.9 °F /  -5.6 °C 30.20 in /  1022.6 hPa NW 3.0 mph /  4.8 km/h 14.0 mph /  22.5 km/h 85 % 0.00 in /  0 mm
20:30 25.8 °F /  -3.4 °C 21.9 °F /  -5.6 °C 30.20 in /  1022.6 hPa NW 3.0 mph /  4.8 km/h 14.0 mph /  22.5 km/h 85 % 0.00 in /  0 mm
20:35 25.7 °F /  -3.5 °C 22.0 °F /  -5.6 °C 30.23 in /  1023.6 hPa WNW 2.0 mph /  3.2 km/h 9.0 mph /  14.5 km/h 84 % 0.00 in /  0 mm
20:40 25.7 °F /  -3.5 °C 21.8 °F /  -5.7 °C 30.20 in /  1022.6 hPa NW 4.0 mph /  6.4 km/h 12.0 mph /  19.3 km/h 85 % 0.00 in /  0 mm
20:45 25.7 °F /  -3.5 °C 21.8 °F /  -5.7 °C 30.20 in /  1022.6 hPa NW 4.0 mph /  6.4 km/h 12.0 mph /  19.3 km/h 85 % 0.00 in /  0 mm
20:50 25.7 °F /  -3.5 °C 22.0 °F /  -5.6 °C 30.24 in /  1023.9 hPa WNW 2.0 mph /  3.2 km/h 11.0 mph /  17.7 km/h 84 % 0.00 in /  0 mm
20:55 25.7 °F /  -3.5 °C 21.5 °F /  -5.8 °C 30.21 in /  1022.9 hPa NW 3.0 mph /  4.8 km/h 11.0 mph /  17.7 km/h 84 % 0.00 in /  0 mm
21:00 25.7 °F /  -3.5 °C 21.5 °F /  -5.8 °C 30.21 in /  1022.9 hPa NW 3.0 mph /  4.8 km/h 11.0 mph /  17.7 km/h 84 % 0.00 in /  0 mm
21:05 25.6 °F /  -3.6 °C 21.0 °F /  -6.1 °C 30.23 in /  1023.6 hPa NW 5.0 mph /  8 km/h 11.0 mph /  17.7 km/h 84 % 0.00 in /  0 mm
21:10 25.6 °F /  -3.6 °C 21.5 °F /  -5.8 °C 30.21 in /  1022.9 hPa NNW 5.0 mph /  8 km/h 13.0 mph /  20.9 km/h 84 % 0.00 in /  0 mm
21:15 25.6 °F /  -3.6 °C 21.5 °F /  -5.8 °C 30.21 in /  1022.9 hPa NNW 5.0 mph /  8 km/h 13.0 mph /  20.9 km/h 84 % 0.00 in /  0 mm
21:20 25.6 °F /  -3.6 °C 21.0 °F /  -6.1 °C 30.23 in /  1023.6 hPa NNW 3.0 mph /  4.8 km/h 6.0 mph /  9.7 km/h 84 % 0.00 in /  0 mm
21:25 25.6 °F /  -3.6 °C 21.5 °F /  -5.8 °C 30.20 in /  1022.6 hPa NNW 4.0 mph /  6.4 km/h 13.0 mph /  20.9 km/h 84 % 0.00 in /  0 mm
21:30 25.6 °F /  -3.6 °C 21.5 °F /  -5.8 °C 30.20 in /  1022.6 hPa NNW 4.0 mph /  6.4 km/h 13.0 mph /  20.9 km/h 84 % 0.00 in /  0 mm
21:35 25.2 °F /  -3.8 °C 21.0 °F /  -6.1 °C 30.23 in /  1023.6 hPa NW 2.0 mph /  3.2 km/h 10.0 mph /  16.1 km/h 83 % 0.00 in /  0 mm
21:40 25.4 °F /  -3.7 °C 21.0 °F /  -6.1 °C 30.20 in /  1022.6 hPa NW 2.0 mph /  3.2 km/h 11.0 mph /  17.7 km/h 83 % 0.00 in /  0 mm
21:45 25.4 °F /  -3.7 °C 21.0 °F /  -6.1 °C 30.20 in /  1022.6 hPa NW 2.0 mph /  3.2 km/h 11.0 mph /  17.7 km/h 83 % 0.00 in /  0 mm
21:50 24.6 °F /  -4.1 °C 20.0 °F /  -6.7 °C 30.24 in /  1023.9 hPa NW 2.0 mph /  3.2 km/h 10.0 mph /  16.1 km/h 82 % 0.00 in /  0 mm
21:55 24.7 °F /  -4.1 °C 20.0 °F /  -6.7 °C 30.20 in /  1022.6 hPa NNW 5.0 mph /  8 km/h 13.0 mph /  20.9 km/h 82 % 0.00 in /  0 mm
22:00 24.7 °F /  -4.1 °C 20.0 °F /  -6.7 °C 30.20 in /  1022.6 hPa NNW 5.0 mph /  8 km/h 13.0 mph /  20.9 km/h 82 % 0.00 in /  0 mm
22:05 24.1 °F /  -4.4 °C 20.0 °F /  -6.7 °C 30.24 in /  1023.9 hPa NW 1.0 mph /  1.6 km/h 6.0 mph /  9.7 km/h 83 % 0.00 in /  0 mm
22:10 24.2 °F /  -4.3 °C 19.8 °F /  -6.8 °C 30.21 in /  1022.9 hPa NNW 2.0 mph /  3.2 km/h 9.0 mph /  14.5 km/h 83 % 0.00 in /  0 mm
22:15 24.2 °F /  -4.3 °C 19.8 °F /  -6.8 °C 30.21 in /  1022.9 hPa NNW 2.0 mph /  3.2 km/h 9.0 mph /  14.5 km/h 83 % 0.00 in /  0 mm
22:20 23.6 °F /  -4.7 °C 19.0 °F /  -7.2 °C 30.24 in /  1023.9 hPa WNW 1.0 mph /  1.6 km/h 5.0 mph /  8 km/h 83 % 0.00 in /  0 mm
22:25 23.7 °F /  -4.6 °C 19.3 °F /  -7.1 °C 30.21 in /  1022.9 hPa NW 2.0 mph /  3.2 km/h 10.0 mph /  16.1 km/h 83 % 0.00 in /  0 mm
22:30 23.7 °F /  -4.6 °C 19.3 °F /  -7.1 °C 30.21 in /  1022.9 hPa NW 2.0 mph /  3.2 km/h 10.0 mph /  16.1 km/h 83 % 0.00 in /  0 mm
22:35 23.4 °F /  -4.8 °C 19.0 °F /  -7.2 °C 30.24 in /  1023.9 hPa NNW 1.0 mph /  1.6 km/h 5.0 mph /  8 km/h 84 % 0.00 in /  0 mm
22:40 23.4 °F /  -4.8 °C 19.3 °F /  -7.1 °C 30.21 in /  1022.9 hPa NW 1.0 mph /  1.6 km/h 6.0 mph /  9.7 km/h 84 % 0.00 in /  0 mm
22:45 23.4 °F /  -4.8 °C 19.3 °F /  -7.1 °C 30.21 in /  1022.9 hPa NW 1.0 mph /  1.6 km/h 6.0 mph /  9.7 km/h 84 % 0.00 in /  0 mm
22:50 23.4 °F /  -4.8 °C 20.0 °F /  -6.7 °C 30.24 in /  1023.9 hPa Calm   5.0 mph /  8 km/h 85 % 0.00 in /  0 mm
22:55 23.4 °F /  -4.8 °C 19.6 °F /  -6.9 °C 30.21 in /  1022.9 hPa NNW 1.0 mph /  1.6 km/h 8.0 mph /  12.9 km/h 85 % 0.00 in /  0 mm
23:00 23.4 °F /  -4.8 °C 19.6 °F /  -6.9 °C 30.21 in /  1022.9 hPa NNW 1.0 mph /  1.6 km/h 8.0 mph /  12.9 km/h 85 % 0.00 in /  0 mm
23:05 23.2 °F /  -4.9 °C 19.0 °F /  -7.2 °C 30.24 in /  1023.9 hPa NW 3.0 mph /  4.8 km/h 4.0 mph /  6.4 km/h 85 % 0.00 in /  0 mm
23:10 23.2 °F /  -4.9 °C 19.4 °F /  -7 °C 30.21 in /  1022.9 hPa NW 1.0 mph /  1.6 km/h 8.0 mph /  12.9 km/h 85 % 0.00 in /  0 mm
23:15 23.2 °F /  -4.9 °C 19.4 °F /  -7 °C 30.21 in /  1022.9 hPa NW 1.0 mph /  1.6 km/h 8.0 mph /  12.9 km/h 85 % 0.00 in /  0 mm
23:20 22.9 °F /  -5.1 °C 19.0 °F /  -7.2 °C 30.24 in /  1023.9 hPa WNW 1.0 mph /  1.6 km/h 4.0 mph /  6.4 km/h 86 % 0.00 in /  0 mm
23:25 22.9 °F /  -5.1 °C 19.4 °F /  -7 °C 30.21 in /  1022.9 hPa NNW 2.0 mph /  3.2 km/h 7.0 mph /  11.3 km/h 86 % 0.00 in /  0 mm
23:30 22.9 °F /  -5.1 °C 19.4 °F /  -7 °C 30.21 in /  1022.9 hPa NNW 2.0 mph /  3.2 km/h 7.0 mph /  11.3 km/h 86 % 0.00 in /  0 mm
23:35 22.5 °F /  -5.3 °C 19.0 °F /  -7.2 °C 30.25 in /  1024.3 hPa NW 1.0 mph /  1.6 km/h 5.0 mph /  8 km/h 86 % 0.00 in /  0 mm
23:40 22.5 °F /  -5.3 °C 19.0 °F /  -7.2 °C 30.22 in /  1023.2 hPa NNW 1.0 mph /  1.6 km/h 4.0 mph /  6.4 km/h 86 % 0.00 in /  0 mm
23:45 22.5 °F /  -5.3 °C 19.0 °F /  -7.2 °C 30.22 in /  1023.2 hPa NNW 1.0 mph /  1.6 km/h 4.0 mph /  6.4 km/h 86 % 0.00 in /  0 mm
23:50 22.2 °F /  -5.4 °C 19.0 °F /  -7.2 °C 30.25 in /  1024.3 hPa NW 2.0 mph /  3.2 km/h 4.0 mph /  6.4 km/h 86 % 0.00 in /  0 mm
23:55 22.2 °F /  -5.4 °C 18.7 °F /  -7.4 °C 30.22 in /  1023.2 hPa Calm   5.0 mph /  8 km/h 86 % 0.00 in /  0 mm
Des Moines Weather and Climate
Compliments of Weather Underground - 4.25 mb

Script developed by  Jim McMurry - jmcmurry@mwt.net Adapted for the template by  Wim van der Kuil - Leuven-Template.eu

You find our weather info also at:

Weather Underground

Equipment we use:

Weather-station
Davis VP2 Plus

Weather-program
Davis Weatherlink.Com

Weather-server
iMac (Retina 4K, 21.5-inch, Late 2015)

Provider
Hostmonster.com

Davis VP2 Plus

Davis Weatherlink.Com

iMac (Retina 4K, 21.5-inch, Late 2015)

Hostmonster.com